ITY964 UAAA-UZSS
Flight info
| Callsign | ITY964 |
|---|---|
| Flight time | 1h 45m |
| Altitude | 40000 |
| Route | TIPSA1A TIPSA L143 TISIB L141 ILGOZ Y92 TITAR TITAR2X |
| Aircraft | A359/H-SDE2E3GHIJ3J4J5LM1ORWXY/LB1D1 |
Departure
| Time | 2026-04-24 04:40 |
|---|---|
| Airport | Almaty International Airport (UAAA) |
Arrival
| Time | 2026-04-24 06:25 |
|---|---|
| Airport | Samarkand International Airport (UZSS) |
| Time | Latitude | Longitude | Altitude | Speed | Heading |
|---|---|---|---|---|---|
| 2026-04-24 04:21 | 43.35126 | 77.02059 | 2235 ft | 0 kts | 0° |
| 2026-04-24 04:32 | 43.35119 | 77.02059 | 2235 ft | 3 kts | 0° |
| 2026-04-24 04:32 | 43.35099 | 77.02059 | 2235 ft | 3 kts | 5° |
| 2026-04-24 04:33 | 43.35078 | 77.02056 | 2235 ft | 3 kts | 5° |
| 2026-04-24 04:33 | 43.35058 | 77.02052 | 2232 ft | 3 kts | 20° |
| 2026-04-24 04:33 | 43.35041 | 77.02038 | 2235 ft | 3 kts | 58° |
| 2026-04-24 04:33 | 43.35035 | 77.02022 | 2231 ft | 0 kts | 84° |
| 2026-04-24 04:37 | 43.35035 | 77.02023 | 2231 ft | 1 kts | 85° |
| 2026-04-24 04:37 | 43.35034 | 77.02047 | 2230 ft | 5 kts | 95° |
| 2026-04-24 04:37 | 43.35025 | 77.02125 | 2235 ft | 11 kts | 100° |
| 2026-04-24 04:37 | 43.34985 | 77.02239 | 2235 ft | 16 kts | 129° |
| 2026-04-24 04:38 | 43.34897 | 77.02350 | 2229 ft | 8 kts | 139° |
| 2026-04-24 04:38 | 43.34895 | 77.02352 | 2229 ft | 0 kts | 139° |
| 2026-04-24 04:38 | 43.34892 | 77.02357 | 2229 ft | 4 kts | 139° |
| 2026-04-24 04:38 | 43.34842 | 77.02416 | 2230 ft | 15 kts | 139° |
| 2026-04-24 04:39 | 43.34758 | 77.02503 | 2235 ft | 11 kts | 132° |
| 2026-04-24 04:39 | 43.34758 | 77.02542 | 2235 ft | 5 kts | 79° |
| 2026-04-24 04:39 | 43.34775 | 77.02587 | 2235 ft | 7 kts | 59° |
| 2026-04-24 04:39 | 43.34859 | 77.02771 | 2225 ft | 55 kts | 57° |
| 2026-04-24 04:40 | 43.35206 | 77.03468 | 2236 ft | 120 kts | 56° |
| 2026-04-24 04:40 | 43.35785 | 77.04639 | 2240 ft | 174 kts | 55° |
| 2026-04-24 04:40 | 43.36487 | 77.06054 | 2895 ft | 175 kts | 55° |
| 2026-04-24 04:40 | 43.37162 | 77.07418 | 3811 ft | 176 kts | 54° |
| 2026-04-24 04:41 | 43.37892 | 77.08880 | 4101 ft | 197 kts | 54° |
| 2026-04-24 04:41 | 43.38697 | 77.10503 | 4352 ft | 219 kts | 54° |
| 2026-04-24 04:41 | 43.39602 | 77.12339 | 4586 ft | 244 kts | 54° |
| 2026-04-24 04:41 | 43.40603 | 77.14359 | 4916 ft | 265 kts | 54° |
| 2026-04-24 04:42 | 43.41657 | 77.16496 | 5445 ft | 274 kts | 55° |
| 2026-04-24 04:42 | 43.42729 | 77.18681 | 6097 ft | 278 kts | 55° |
| 2026-04-24 04:42 | 43.43819 | 77.20903 | 6726 ft | 282 kts | 55° |
| 2026-04-24 04:42 | 43.44923 | 77.23157 | 7342 ft | 286 kts | 55° |
| 2026-04-24 04:43 | 43.46042 | 77.25437 | 7971 ft | 289 kts | 55° |
| 2026-04-24 04:43 | 43.47174 | 77.27749 | 8595 ft | 294 kts | 55° |
| 2026-04-24 04:43 | 43.48301 | 77.30066 | 9225 ft | 297 kts | 56° |
| 2026-04-24 04:43 | 43.49446 | 77.32461 | 9858 ft | 301 kts | 56° |
| 2026-04-24 04:44 | 43.50606 | 77.34893 | 10362 ft | 309 kts | 56° |
| 2026-04-24 04:44 | 43.51817 | 77.37424 | 10645 ft | 325 kts | 56° |
| 2026-04-24 04:44 | 43.53090 | 77.40086 | 10866 ft | 340 kts | 56° |
| 2026-04-24 04:44 | 43.54418 | 77.42863 | 11156 ft | 353 kts | 56° |
| 2026-04-24 04:45 | 43.55779 | 77.45715 | 11589 ft | 359 kts | 56° |
| 2026-04-24 04:45 | 43.57157 | 77.48606 | 12079 ft | 363 kts | 56° |
| 2026-04-24 04:45 | 43.58531 | 77.51491 | 12595 ft | 366 kts | 56° |
| 2026-04-24 04:45 | 43.59945 | 77.54427 | 13110 ft | 369 kts | 54° |
| 2026-04-24 04:46 | 43.61386 | 77.57376 | 13635 ft | 373 kts | 54° |
| 2026-04-24 04:46 | 43.62844 | 77.60359 | 14104 ft | 377 kts | 54° |
| 2026-04-24 04:46 | 43.64313 | 77.63375 | 14575 ft | 380 kts | 54° |
| 2026-04-24 04:46 | 43.65792 | 77.66415 | 15013 ft | 384 kts | 54° |
| 2026-04-24 04:47 | 43.67286 | 77.69495 | 15458 ft | 387 kts | 54° |
| 2026-04-24 04:47 | 43.68792 | 77.72602 | 15863 ft | 392 kts | 54° |
| 2026-04-24 04:47 | 43.70312 | 77.75744 | 16329 ft | 395 kts | 54° |
| 2026-04-24 04:47 | 43.71825 | 77.78876 | 16749 ft | 398 kts | 54° |
| 2026-04-24 04:48 | 43.73369 | 77.82075 | 17176 ft | 402 kts | 54° |
| 2026-04-24 04:48 | 43.74925 | 77.85302 | 17602 ft | 405 kts | 54° |
| 2026-04-24 04:48 | 43.76496 | 77.88564 | 18028 ft | 409 kts | 54° |
| 2026-04-24 04:48 | 43.78227 | 77.91688 | 18425 ft | 409 kts | 43° |
| 2026-04-24 04:49 | 43.80495 | 77.94003 | 18785 ft | 404 kts | 22° |
| 2026-04-24 04:49 | 43.83142 | 77.95128 | 19151 ft | 396 kts | 2° |
| 2026-04-24 04:49 | 43.85875 | 77.95206 | 19532 ft | 393 kts | 352° |
| 2026-04-24 04:49 | 43.88611 | 77.95001 | 19896 ft | 395 kts | 352° |
| 2026-04-24 04:50 | 43.91366 | 77.94780 | 20277 ft | 398 kts | 352° |
| 2026-04-24 04:50 | 43.94104 | 77.94574 | 20644 ft | 401 kts | 352° |
| 2026-04-24 04:50 | 43.96891 | 77.94372 | 21042 ft | 403 kts | 352° |
| 2026-04-24 04:50 | 43.99702 | 77.94172 | 21424 ft | 405 kts | 352° |
| 2026-04-24 04:51 | 44.02526 | 77.93974 | 21787 ft | 408 kts | 352° |
| 2026-04-24 04:51 | 44.05373 | 77.93776 | 22156 ft | 410 kts | 352° |
| 2026-04-24 04:51 | 44.08231 | 77.93578 | 22512 ft | 413 kts | 352° |
| 2026-04-24 04:51 | 44.11115 | 77.93379 | 22865 ft | 416 kts | 352° |
| 2026-04-24 04:52 | 44.13971 | 77.93182 | 23199 ft | 418 kts | 352° |
| 2026-04-24 04:52 | 44.16880 | 77.92961 | 23562 ft | 420 kts | 351° |
| 2026-04-24 04:52 | 44.19756 | 77.92366 | 23883 ft | 416 kts | 341° |
| 2026-04-24 04:52 | 44.22471 | 77.91072 | 24186 ft | 410 kts | 330° |
| 2026-04-24 04:53 | 44.24921 | 77.89100 | 24502 ft | 405 kts | 319° |
| 2026-04-24 04:53 | 44.27032 | 77.86553 | 24818 ft | 399 kts | 309° |
| 2026-04-24 04:53 | 44.28747 | 77.83533 | 25117 ft | 395 kts | 298° |
| 2026-04-24 04:53 | 44.30022 | 77.80154 | 25426 ft | 392 kts | 289° |
| 2026-04-24 04:54 | 44.30827 | 77.76544 | 25748 ft | 389 kts | 279° |
| 2026-04-24 04:54 | 44.31151 | 77.72854 | 26063 ft | 388 kts | 270° |
| 2026-04-24 04:54 | 44.30994 | 77.69097 | 26406 ft | 388 kts | 260° |
| 2026-04-24 04:54 | 44.30356 | 77.65442 | 26744 ft | 389 kts | 251° |
| 2026-04-24 04:55 | 44.29255 | 77.61995 | 27118 ft | 391 kts | 242° |
| 2026-04-24 04:55 | 44.27712 | 77.58855 | 27482 ft | 394 kts | 232° |
| 2026-04-24 04:55 | 44.25778 | 77.56121 | 27877 ft | 398 kts | 224° |
| 2026-04-24 04:55 | 44.23661 | 77.53611 | 28285 ft | 400 kts | 223° |
| 2026-04-24 04:56 | 44.21517 | 77.51121 | 28686 ft | 402 kts | 223° |
| 2026-04-24 04:56 | 44.19367 | 77.48613 | 29074 ft | 404 kts | 223° |
| 2026-04-24 04:56 | 44.17287 | 77.46069 | 29469 ft | 403 kts | 227° |
| 2026-04-24 04:56 | 44.15452 | 77.43129 | 29901 ft | 402 kts | 236° |
| 2026-04-24 04:57 | 44.14045 | 77.39774 | 30303 ft | 402 kts | 246° |
| 2026-04-24 04:57 | 44.12948 | 77.36194 | 30650 ft | 404 kts | 249° |
| 2026-04-24 04:57 | 44.11964 | 77.32525 | 31018 ft | 405 kts | 250° |
| 2026-04-24 04:57 | 44.11027 | 77.28814 | 31394 ft | 407 kts | 251° |
| 2026-04-24 04:58 | 44.10100 | 77.25088 | 31785 ft | 408 kts | 251° |
| 2026-04-24 04:58 | 44.09162 | 77.21353 | 32148 ft | 410 kts | 251° |
| 2026-04-24 04:58 | 44.08221 | 77.17663 | 32501 ft | 411 kts | 251° |
| 2026-04-24 04:58 | 44.07250 | 77.13909 | 32875 ft | 413 kts | 250° |
| 2026-04-24 04:59 | 44.06269 | 77.10154 | 33229 ft | 414 kts | 250° |
| 2026-04-24 04:59 | 44.05278 | 77.06388 | 33561 ft | 416 kts | 250° |
| 2026-04-24 04:59 | 44.04281 | 77.02610 | 33913 ft | 417 kts | 250° |
| 2026-04-24 04:59 | 44.03278 | 76.98816 | 34233 ft | 419 kts | 250° |
| 2026-04-24 05:00 | 44.02271 | 76.95011 | 34473 ft | 421 kts | 250° |
| 2026-04-24 05:00 | 44.01258 | 76.91189 | 34731 ft | 422 kts | 250° |
| 2026-04-24 05:00 | 44.00243 | 76.87365 | 35096 ft | 421 kts | 250° |
| 2026-04-24 05:00 | 43.99246 | 76.83611 | 35481 ft | 420 kts | 250° |
| 2026-04-24 05:01 | 43.98236 | 76.79814 | 35849 ft | 419 kts | 250° |
| 2026-04-24 05:01 | 43.97226 | 76.76023 | 36206 ft | 418 kts | 250° |
| 2026-04-24 05:01 | 43.96215 | 76.72235 | 36559 ft | 418 kts | 250° |
| 2026-04-24 05:01 | 43.95205 | 76.68456 | 36924 ft | 417 kts | 250° |
| 2026-04-24 05:02 | 43.94197 | 76.64689 | 37292 ft | 416 kts | 250° |
| 2026-04-24 05:02 | 43.93190 | 76.60926 | 37658 ft | 416 kts | 250° |
| 2026-04-24 05:02 | 43.92182 | 76.57174 | 38018 ft | 415 kts | 250° |
| 2026-04-24 05:02 | 43.91188 | 76.53480 | 38354 ft | 414 kts | 250° |
| 2026-04-24 05:03 | 43.90181 | 76.49745 | 38699 ft | 414 kts | 250° |
| 2026-04-24 05:03 | 43.89172 | 76.46008 | 38943 ft | 414 kts | 250° |
| 2026-04-24 05:03 | 43.88161 | 76.42267 | 39143 ft | 415 kts | 250° |
| 2026-04-24 05:03 | 43.87148 | 76.38524 | 39334 ft | 416 kts | 250° |
| 2026-04-24 05:04 | 43.86131 | 76.34771 | 39557 ft | 416 kts | 250° |
| 2026-04-24 05:04 | 43.85111 | 76.31013 | 39747 ft | 417 kts | 249° |
| 2026-04-24 05:04 | 43.84088 | 76.27251 | 39946 ft | 418 kts | 249° |
| 2026-04-24 05:04 | 43.83063 | 76.23487 | 40081 ft | 419 kts | 249° |
| 2026-04-24 05:05 | 43.81013 | 76.15975 | 40112 ft | 420 kts | 249° |
| 2026-04-24 05:05 | 43.78941 | 76.08407 | 40114 ft | 420 kts | 249° |
| 2026-04-24 05:06 | 43.77217 | 76.02128 | 40114 ft | 420 kts | 249° |
| 2026-04-24 05:06 | 43.75135 | 75.94568 | 40118 ft | 420 kts | 249° |
| 2026-04-24 05:07 | 43.72712 | 75.85792 | 40114 ft | 420 kts | 249° |
| 2026-04-24 05:07 | 43.70620 | 75.78247 | 40114 ft | 420 kts | 249° |
| 2026-04-24 05:08 | 43.68876 | 75.71974 | 40117 ft | 421 kts | 249° |
| 2026-04-24 05:08 | 43.66774 | 75.64431 | 40115 ft | 421 kts | 249° |
| 2026-04-24 05:09 | 43.64228 | 75.55727 | 40119 ft | 421 kts | 244° |
| 2026-04-24 05:09 | 43.61586 | 75.50021 | 40117 ft | 423 kts | 232° |
| 2026-04-24 05:10 | 43.57794 | 75.43875 | 40113 ft | 424 kts | 231° |
| 2026-04-24 05:10 | 43.53857 | 75.37821 | 40114 ft | 424 kts | 230° |
| 2026-04-24 05:11 | 43.49912 | 75.31774 | 40114 ft | 424 kts | 230° |
| 2026-04-24 05:11 | 43.45979 | 75.25712 | 40112 ft | 424 kts | 230° |
| 2026-04-24 05:12 | 43.42076 | 75.19690 | 40109 ft | 424 kts | 230° |
| 2026-04-24 05:12 | 43.38164 | 75.13621 | 40106 ft | 424 kts | 231° |
| 2026-04-24 05:13 | 43.32981 | 75.03804 | 40101 ft | 423 kts | 236° |
| 2026-04-24 05:14 | 43.29645 | 74.97144 | 40101 ft | 423 kts | 237° |
| 2026-04-24 05:14 | 43.26318 | 74.90507 | 40093 ft | 423 kts | 236° |
| 2026-04-24 05:15 | 43.22993 | 74.83910 | 40091 ft | 423 kts | 236° |
| 2026-04-24 05:15 | 43.19636 | 74.77273 | 40093 ft | 424 kts | 236° |
| 2026-04-24 05:16 | 43.16271 | 74.70639 | 40096 ft | 424 kts | 236° |
| 2026-04-24 05:16 | 43.12903 | 74.64012 | 40098 ft | 424 kts | 236° |
| 2026-04-24 05:17 | 43.09552 | 74.57434 | 40103 ft | 424 kts | 236° |
| 2026-04-24 05:17 | 43.05925 | 74.51065 | 40103 ft | 426 kts | 228° |
| 2026-04-24 05:18 | 43.01779 | 74.45276 | 40101 ft | 427 kts | 227° |
| 2026-04-24 05:18 | 42.97559 | 74.39568 | 40101 ft | 427 kts | 227° |
| 2026-04-24 05:19 | 42.93364 | 74.33898 | 40100 ft | 427 kts | 227° |
| 2026-04-24 05:19 | 42.89152 | 74.28184 | 40098 ft | 427 kts | 227° |
| 2026-04-24 05:20 | 42.84942 | 74.22473 | 40099 ft | 427 kts | 227° |
| 2026-04-24 05:20 | 42.80723 | 74.16761 | 40105 ft | 427 kts | 227° |
| 2026-04-24 05:21 | 42.76533 | 74.11100 | 40103 ft | 427 kts | 227° |
| 2026-04-24 05:21 | 42.72312 | 74.05408 | 40106 ft | 427 kts | 227° |
| 2026-04-24 05:22 | 42.68084 | 73.99720 | 40111 ft | 427 kts | 227° |
| 2026-04-24 05:22 | 42.63850 | 73.94038 | 40117 ft | 428 kts | 227° |
| 2026-04-24 05:23 | 42.59613 | 73.88359 | 40120 ft | 428 kts | 226° |
| 2026-04-24 05:23 | 42.55406 | 73.82729 | 40122 ft | 427 kts | 226° |
| 2026-04-24 05:24 | 42.51171 | 73.77075 | 40131 ft | 428 kts | 226° |
| 2026-04-24 05:24 | 42.46927 | 73.71424 | 40133 ft | 428 kts | 226° |
| 2026-04-24 05:25 | 42.42674 | 73.65767 | 40135 ft | 428 kts | 226° |
| 2026-04-24 05:25 | 42.39023 | 73.59534 | 40141 ft | 425 kts | 240° |
| 2026-04-24 05:26 | 42.36228 | 73.52497 | 40149 ft | 425 kts | 243° |
| 2026-04-24 05:26 | 42.33583 | 73.45347 | 40157 ft | 425 kts | 243° |
| 2026-04-24 05:27 | 42.30943 | 73.38185 | 40162 ft | 426 kts | 243° |
| 2026-04-24 05:27 | 42.28277 | 73.31038 | 40161 ft | 426 kts | 243° |
| 2026-04-24 05:28 | 42.25615 | 73.23952 | 40157 ft | 426 kts | 243° |
| 2026-04-24 05:28 | 42.22927 | 73.16819 | 40152 ft | 426 kts | 243° |
| 2026-04-24 05:29 | 42.20235 | 73.09689 | 40155 ft | 426 kts | 243° |
| 2026-04-24 05:29 | 42.17539 | 73.02553 | 40153 ft | 427 kts | 243° |
| 2026-04-24 05:30 | 42.14866 | 72.95483 | 40158 ft | 426 kts | 243° |
| 2026-04-24 05:30 | 42.12174 | 72.88377 | 40167 ft | 425 kts | 243° |
| 2026-04-24 05:31 | 42.09470 | 72.81276 | 40153 ft | 427 kts | 243° |
| 2026-04-24 05:31 | 42.06765 | 72.74169 | 40154 ft | 428 kts | 243° |
| 2026-04-24 05:32 | 42.04053 | 72.67070 | 40155 ft | 426 kts | 243° |
| 2026-04-24 05:32 | 42.01362 | 72.60037 | 40142 ft | 426 kts | 243° |
| 2026-04-24 05:33 | 41.98645 | 72.52963 | 40145 ft | 426 kts | 243° |
| 2026-04-24 05:33 | 41.95924 | 72.45898 | 40144 ft | 426 kts | 243° |
| 2026-04-24 05:34 | 41.91828 | 72.35289 | 40143 ft | 426 kts | 243° |
| 2026-04-24 05:34 | 41.89107 | 72.28260 | 40149 ft | 427 kts | 243° |
| 2026-04-24 05:35 | 41.86359 | 72.21181 | 40142 ft | 427 kts | 243° |
| 2026-04-24 05:35 | 41.83619 | 72.14136 | 40145 ft | 426 kts | 243° |
| 2026-04-24 05:36 | 41.80895 | 72.07150 | 40150 ft | 425 kts | 242° |
| 2026-04-24 05:36 | 41.78149 | 72.00127 | 40145 ft | 425 kts | 243° |
| 2026-04-24 05:37 | 41.75395 | 71.93108 | 40132 ft | 425 kts | 243° |
| 2026-04-24 05:37 | 41.72640 | 71.86088 | 40142 ft | 426 kts | 242° |
| 2026-04-24 05:38 | 41.69908 | 71.79069 | 40135 ft | 425 kts | 244° |
| 2026-04-24 05:38 | 41.67357 | 71.72002 | 40142 ft | 424 kts | 244° |
| 2026-04-24 05:39 | 41.64819 | 71.64865 | 40136 ft | 425 kts | 244° |
| 2026-04-24 05:39 | 41.62253 | 71.57757 | 40130 ft | 424 kts | 244° |
| 2026-04-24 05:40 | 41.59661 | 71.50651 | 40145 ft | 429 kts | 244° |
| 2026-04-24 05:40 | 41.57031 | 71.43468 | 40131 ft | 432 kts | 244° |
| 2026-04-24 05:41 | 41.54410 | 71.36321 | 40134 ft | 431 kts | 244° |
| 2026-04-24 05:41 | 41.51771 | 71.29140 | 40141 ft | 430 kts | 244° |
| 2026-04-24 05:42 | 41.49130 | 71.21978 | 40134 ft | 430 kts | 244° |
| 2026-04-24 05:42 | 41.46420 | 71.14861 | 40136 ft | 431 kts | 243° |
| 2026-04-24 05:43 | 41.43606 | 71.07869 | 40135 ft | 430 kts | 242° |
| 2026-04-24 05:43 | 41.40771 | 71.00846 | 40138 ft | 430 kts | 243° |
| 2026-04-24 05:44 | 41.37955 | 70.93815 | 40141 ft | 430 kts | 243° |
| 2026-04-24 05:44 | 41.35142 | 70.86778 | 40142 ft | 430 kts | 243° |
| 2026-04-24 05:45 | 41.32332 | 70.79754 | 40136 ft | 430 kts | 243° |
| 2026-04-24 05:45 | 41.29537 | 70.72785 | 40133 ft | 430 kts | 243° |
| 2026-04-24 05:46 | 41.26723 | 70.65791 | 40128 ft | 429 kts | 243° |
| 2026-04-24 05:46 | 41.23902 | 70.58802 | 40125 ft | 429 kts | 242° |
| 2026-04-24 05:47 | 41.21083 | 70.51827 | 40123 ft | 429 kts | 242° |
| 2026-04-24 05:47 | 41.18280 | 70.44907 | 40110 ft | 428 kts | 242° |
| 2026-04-24 05:48 | 41.15454 | 70.37956 | 40105 ft | 428 kts | 242° |
| 2026-04-24 05:48 | 41.12626 | 70.31012 | 40099 ft | 428 kts | 242° |
| 2026-04-24 05:49 | 41.09797 | 70.24082 | 40094 ft | 427 kts | 242° |
| 2026-04-24 05:49 | 41.07174 | 70.17019 | 40089 ft | 427 kts | 246° |
| 2026-04-24 05:50 | 41.04794 | 70.09870 | 40082 ft | 427 kts | 246° |
| 2026-04-24 05:50 | 41.02376 | 70.02700 | 40077 ft | 426 kts | 246° |
| 2026-04-24 05:51 | 40.99909 | 69.95561 | 40068 ft | 426 kts | 245° |
| 2026-04-24 05:51 | 40.97420 | 69.88441 | 40061 ft | 426 kts | 245° |
| 2026-04-24 05:52 | 40.94943 | 69.81377 | 40056 ft | 426 kts | 245° |
| 2026-04-24 05:52 | 40.92443 | 69.74265 | 40053 ft | 426 kts | 245° |
| 2026-04-24 05:53 | 40.89933 | 69.67135 | 40045 ft | 430 kts | 245° |
| 2026-04-24 05:53 | 40.87405 | 69.59968 | 40041 ft | 431 kts | 245° |
| 2026-04-24 05:54 | 40.84869 | 69.52800 | 40037 ft | 431 kts | 245° |
| 2026-04-24 05:54 | 40.82343 | 69.45677 | 40030 ft | 431 kts | 245° |
| 2026-04-24 05:55 | 40.79797 | 69.38514 | 40027 ft | 431 kts | 245° |
| 2026-04-24 05:55 | 40.77242 | 69.31354 | 40023 ft | 431 kts | 245° |
| 2026-04-24 05:56 | 40.74682 | 69.24201 | 40021 ft | 431 kts | 245° |
| 2026-04-24 05:56 | 40.72137 | 69.17103 | 40022 ft | 431 kts | 244° |
| 2026-04-24 05:57 | 40.69569 | 69.09960 | 40023 ft | 431 kts | 244° |
| 2026-04-24 05:57 | 40.66995 | 69.02820 | 40022 ft | 431 kts | 244° |
| 2026-04-24 05:58 | 40.64418 | 68.95688 | 40015 ft | 431 kts | 244° |
| 2026-04-24 05:58 | 40.61852 | 68.88604 | 40018 ft | 431 kts | 244° |
| 2026-04-24 05:59 | 40.59268 | 68.81488 | 40015 ft | 431 kts | 244° |
| 2026-04-24 05:59 | 40.56890 | 68.74247 | 40017 ft | 432 kts | 249° |
| 2026-04-24 06:00 | 40.54867 | 68.66813 | 40021 ft | 432 kts | 250° |
| 2026-04-24 06:00 | 40.52895 | 68.59357 | 40023 ft | 432 kts | 250° |
| 2026-04-24 06:01 | 40.50656 | 68.52102 | 39993 ft | 430 kts | 245° |
| 2026-04-24 06:01 | 40.49414 | 68.48554 | 39496 ft | 428 kts | 245° |
| 2026-04-24 06:01 | 40.48143 | 68.45002 | 38749 ft | 431 kts | 244° |
| 2026-04-24 06:02 | 40.46851 | 68.41435 | 37882 ft | 433 kts | 244° |
| 2026-04-24 06:02 | 40.45571 | 68.37909 | 36602 ft | 425 kts | 244° |
| 2026-04-24 06:02 | 40.44284 | 68.34371 | 35316 ft | 434 kts | 244° |
| 2026-04-24 06:02 | 40.42990 | 68.30810 | 34876 ft | 429 kts | 244° |
| 2026-04-24 06:03 | 40.41715 | 68.27298 | 34423 ft | 424 kts | 244° |
| 2026-04-24 06:03 | 40.40455 | 68.23827 | 33873 ft | 421 kts | 244° |
| 2026-04-24 06:03 | 40.39215 | 68.20414 | 33309 ft | 418 kts | 244° |
| 2026-04-24 06:03 | 40.37972 | 68.16996 | 32775 ft | 414 kts | 244° |
| 2026-04-24 06:04 | 40.36736 | 68.13600 | 32252 ft | 410 kts | 243° |
| 2026-04-24 06:04 | 40.35511 | 68.10239 | 31740 ft | 407 kts | 243° |
| 2026-04-24 06:04 | 40.34293 | 68.06902 | 31222 ft | 405 kts | 244° |
| 2026-04-24 06:04 | 40.32913 | 68.03708 | 30726 ft | 401 kts | 235° |
| 2026-04-24 06:05 | 40.31157 | 68.00883 | 30214 ft | 399 kts | 227° |
| 2026-04-24 06:05 | 40.29227 | 67.98291 | 29659 ft | 397 kts | 225° |
| 2026-04-24 06:05 | 40.27305 | 67.95772 | 29143 ft | 394 kts | 225° |
| 2026-04-24 06:05 | 40.25376 | 67.93255 | 28642 ft | 390 kts | 225° |
| 2026-04-24 06:06 | 40.23461 | 67.90760 | 28136 ft | 387 kts | 225° |
| 2026-04-24 06:06 | 40.21555 | 67.88280 | 27638 ft | 385 kts | 225° |
| 2026-04-24 06:06 | 40.19663 | 67.85821 | 27128 ft | 383 kts | 225° |
| 2026-04-24 06:06 | 40.17780 | 67.83374 | 26642 ft | 380 kts | 225° |
| 2026-04-24 06:07 | 40.15908 | 67.80946 | 26132 ft | 379 kts | 225° |
| 2026-04-24 06:07 | 40.14043 | 67.78522 | 25632 ft | 377 kts | 225° |
| 2026-04-24 06:07 | 40.12341 | 67.75930 | 25120 ft | 375 kts | 234° |
| 2026-04-24 06:07 | 40.10859 | 67.73191 | 24631 ft | 374 kts | 235° |
| 2026-04-24 06:08 | 40.09389 | 67.70398 | 24117 ft | 373 kts | 236° |
| 2026-04-24 06:08 | 40.07923 | 67.67614 | 23622 ft | 372 kts | 235° |
| 2026-04-24 06:08 | 40.06455 | 67.64838 | 23038 ft | 371 kts | 235° |
| 2026-04-24 06:08 | 40.04993 | 67.62080 | 22520 ft | 368 kts | 235° |
| 2026-04-24 06:09 | 40.03543 | 67.59349 | 22006 ft | 365 kts | 235° |
| 2026-04-24 06:09 | 40.02101 | 67.56638 | 21494 ft | 362 kts | 235° |
| 2026-04-24 06:09 | 40.00667 | 67.53948 | 20990 ft | 360 kts | 235° |
| 2026-04-24 06:09 | 39.99241 | 67.51271 | 20482 ft | 358 kts | 235° |
| 2026-04-24 06:10 | 39.97823 | 67.48614 | 19986 ft | 356 kts | 235° |
| 2026-04-24 06:10 | 39.96427 | 67.46001 | 19483 ft | 355 kts | 235° |
| 2026-04-24 06:10 | 39.95019 | 67.43368 | 18987 ft | 354 kts | 235° |
| 2026-04-24 06:11 | 39.92214 | 67.38126 | 17943 ft | 351 kts | 235° |
| 2026-04-24 06:11 | 39.90822 | 67.35530 | 17415 ft | 348 kts | 235° |
| 2026-04-24 06:11 | 39.89440 | 67.32952 | 16945 ft | 346 kts | 235° |
| 2026-04-24 06:11 | 39.88068 | 67.30394 | 16437 ft | 343 kts | 235° |
| 2026-04-24 06:12 | 39.86705 | 67.27855 | 15939 ft | 341 kts | 235° |
| 2026-04-24 06:12 | 39.85368 | 67.25368 | 15473 ft | 339 kts | 235° |
| 2026-04-24 06:12 | 39.84019 | 67.22858 | 14972 ft | 337 kts | 235° |
| 2026-04-24 06:12 | 39.82691 | 67.20359 | 14505 ft | 335 kts | 235° |
| 2026-04-24 06:13 | 39.81367 | 67.17867 | 14015 ft | 334 kts | 235° |
| 2026-04-24 06:13 | 39.80049 | 67.15390 | 13503 ft | 332 kts | 235° |
| 2026-04-24 06:13 | 39.78738 | 67.12929 | 13006 ft | 330 kts | 235° |
| 2026-04-24 06:13 | 39.77439 | 67.10491 | 12528 ft | 327 kts | 234° |
| 2026-04-24 06:14 | 39.76148 | 67.08071 | 12043 ft | 324 kts | 234° |
| 2026-04-24 06:14 | 39.74890 | 67.05707 | 11576 ft | 321 kts | 234° |
| 2026-04-24 06:14 | 39.73625 | 67.03328 | 11103 ft | 319 kts | 234° |
| 2026-04-24 06:14 | 39.72280 | 67.01067 | 10720 ft | 313 kts | 224° |
| 2026-04-24 06:15 | 39.70508 | 66.99585 | 10581 ft | 298 kts | 199° |
| 2026-04-24 06:15 | 39.68559 | 66.99284 | 10476 ft | 274 kts | 175° |
| 2026-04-24 06:15 | 39.66768 | 67.00002 | 10292 ft | 270 kts | 154° |
| 2026-04-24 06:15 | 39.65341 | 67.01587 | 9945 ft | 276 kts | 130° |
| 2026-04-24 06:16 | 39.64510 | 67.03878 | 9537 ft | 290 kts | 106° |
| 2026-04-24 06:16 | 39.64504 | 67.06525 | 9154 ft | 299 kts | 80° |
| 2026-04-24 06:16 | 39.65383 | 67.08925 | 8773 ft | 303 kts | 53° |
| 2026-04-24 06:16 | 39.66931 | 67.10767 | 8403 ft | 302 kts | 40° |
| 2026-04-24 06:17 | 39.68279 | 67.12796 | 8150 ft | 293 kts | 64° |
| 2026-04-24 06:17 | 39.68800 | 67.15257 | 8035 ft | 278 kts | 90° |
| 2026-04-24 06:17 | 39.68700 | 67.17681 | 7946 ft | 259 kts | 98° |
| 2026-04-24 06:17 | 39.68495 | 67.19916 | 7793 ft | 240 kts | 101° |
| 2026-04-24 06:18 | 39.68053 | 67.21899 | 7618 ft | 220 kts | 117° |
| 2026-04-24 06:18 | 39.67219 | 67.23471 | 7309 ft | 207 kts | 136° |
| 2026-04-24 06:18 | 39.66062 | 67.24553 | 6858 ft | 206 kts | 155° |
| 2026-04-24 06:18 | 39.64697 | 67.25081 | 6384 ft | 206 kts | 173° |
| 2026-04-24 06:19 | 39.63287 | 67.24996 | 5886 ft | 207 kts | 191° |
| 2026-04-24 06:19 | 39.61951 | 67.24300 | 5403 ft | 208 kts | 210° |
| 2026-04-24 06:19 | 39.60852 | 67.23071 | 4916 ft | 210 kts | 230° |
| 2026-04-24 06:19 | 39.60149 | 67.21418 | 4702 ft | 212 kts | 250° |
| 2026-04-24 06:20 | 39.59898 | 67.19550 | 4590 ft | 210 kts | 270° |
| 2026-04-24 06:20 | 39.60131 | 67.17693 | 4466 ft | 208 kts | 289° |
| 2026-04-24 06:20 | 39.60816 | 67.16053 | 4375 ft | 208 kts | 308° |
| 2026-04-24 06:20 | 39.61872 | 67.14808 | 4258 ft | 206 kts | 328° |
| 2026-04-24 06:21 | 39.63144 | 67.14046 | 4161 ft | 203 kts | 341° |
| 2026-04-24 06:21 | 39.64485 | 67.13481 | 4016 ft | 204 kts | 345° |
| 2026-04-24 06:21 | 39.65814 | 67.12943 | 4001 ft | 191 kts | 343° |
| 2026-04-24 06:21 | 39.66996 | 67.12445 | 4019 ft | 167 kts | 344° |
| 2026-04-24 06:22 | 39.68036 | 67.12017 | 4011 ft | 149 kts | 345° |
| 2026-04-24 06:22 | 39.68854 | 67.11259 | 3930 ft | 147 kts | 300° |
| 2026-04-24 06:22 | 39.69280 | 67.10036 | 3845 ft | 154 kts | 291° |
| 2026-04-24 06:22 | 39.69402 | 67.08650 | 3592 ft | 156 kts | 269° |
| 2026-04-24 06:23 | 39.69424 | 67.07249 | 3378 ft | 154 kts | 275° |
| 2026-04-24 06:23 | 39.69548 | 67.05886 | 3167 ft | 150 kts | 279° |
| 2026-04-24 06:23 | 39.69677 | 67.04567 | 2962 ft | 148 kts | 276° |
| 2026-04-24 06:23 | 39.69777 | 67.03242 | 2804 ft | 148 kts | 276° |
| 2026-04-24 06:24 | 39.69880 | 67.01912 | 2674 ft | 137 kts | 276° |
| 2026-04-24 06:24 | 39.69993 | 67.00617 | 2425 ft | 151 kts | 277° |
| 2026-04-24 06:24 | 39.70087 | 66.99285 | 2223 ft | 139 kts | 275° |
| 2026-04-24 06:24 | 39.70159 | 66.98360 | 2223 ft | 61 kts | 276° |
| 2026-04-24 06:25 | 39.70199 | 66.97852 | 2222 ft | 56 kts | 275° |
| 2026-04-24 06:25 | 39.70236 | 66.97352 | 2224 ft | 55 kts | 275° |
| 2026-04-24 06:25 | 39.70276 | 66.96863 | 2222 ft | 54 kts | 276° |
| 2026-04-24 06:25 | 39.70293 | 66.96623 | 2227 ft | 15 kts | 256° |
| 2026-04-24 06:26 | 39.70226 | 66.96589 | 2216 ft | 11 kts | 161° |
| 2026-04-24 06:26 | 39.70191 | 66.96682 | 2215 ft | 15 kts | 102° |
| 2026-04-24 06:26 | 39.70172 | 66.96870 | 2215 ft | 22 kts | 95° |
| 2026-04-24 06:26 | 39.70114 | 66.96988 | 2212 ft | 12 kts | 162° |
| 2026-04-24 06:27 | 39.70049 | 66.97050 | 2214 ft | 12 kts | 117° |
| 2026-04-24 06:27 | 39.70012 | 66.97157 | 2214 ft | 14 kts | 111° |
| 2026-04-24 06:27 | 39.69984 | 66.97265 | 2213 ft | 15 kts | 105° |
| 2026-04-24 06:27 | 39.69958 | 66.97388 | 2213 ft | 16 kts | 105° |
| 2026-04-24 06:28 | 39.69926 | 66.97540 | 2212 ft | 18 kts | 105° |
| 2026-04-24 06:28 | 39.69898 | 66.97708 | 2212 ft | 20 kts | 96° |
| 2026-04-24 06:28 | 39.69883 | 66.97890 | 2213 ft | 21 kts | 96° |
| 2026-04-24 06:28 | 39.69868 | 66.98086 | 2211 ft | 22 kts | 96° |
| 2026-04-24 06:29 | 39.69852 | 66.98294 | 2213 ft | 24 kts | 96° |
| 2026-04-24 06:29 | 39.69835 | 66.98501 | 2211 ft | 23 kts | 95° |
| 2026-04-24 06:29 | 39.69819 | 66.98711 | 2214 ft | 24 kts | 96° |
| 2026-04-24 06:29 | 39.69802 | 66.98931 | 2214 ft | 25 kts | 96° |
| 2026-04-24 06:30 | 39.69773 | 66.99095 | 2211 ft | 13 kts | 130° |
| 2026-04-24 06:30 | 39.69734 | 66.99196 | 2212 ft | 13 kts | 106° |
| 2026-04-24 06:30 | 39.69717 | 66.99317 | 2212 ft | 15 kts | 99° |
| 2026-04-24 06:30 | 39.69715 | 66.99342 | 2213 ft | 0 kts | 95° |